Terminal Aerodrome Forecast
Issued by NWS Melbourne, FL

Home | Current Version | Previous Version | Text Only | Print | Product List | Glossary On
Versions: 1 2 3 4 5 6 7 8 9 10 11 12 13 14 15 16
000
FTUS42 KMLB 161908 AAA
TAFDAB
TAF AMD
KDAB 161908Z 1619/1718 08007KT P6SM VCTS SCT035CB SCT250
      TEMPO 1619/1620 VRB10G20KT 5SM -TSRA BKN035CB
     FM162200 VRB05KT P6SM SCT040 BKN200
     FM171400 30004KT P6SM SCT025 SCT250=

USA.gov is the U.S. government's official web portal to all federal, state and local government web resources and services.